Time,TemperatureF,DewpointF,PressureIn,WindDirection,WindDirectionDegrees,WindSpeedMPH,WindSpeedGustMPH,Humidity,HourlyPrecipIn,Conditions,Clouds,dailyrainin,SoftwareType,DateUTC
2013-02-20 00:00:00,25.7,13.8,29.59,East,94,1.0,0.0,60,0.00,,,0.00,vanprod-2.5-rc3,2013-02-20 07:00:00,
2013-02-20 00:05:00,25.3,13.0,29.57,East,94,0.0,1.0,59,0.00,,,0.00,vanprod-2.5-rc3,2013-02-20 07:05:00,
2013-02-20 00:10:00,25.0,12.3,29.58,East,97,0.0,0.0,58,0.00,,,0.00,vanprod-2.5-rc3,2013-02-20 07:10:00,
2013-02-20 00:15:00,25.1,13.2,29.58,East,97,0.0,0.0,60,0.00,,,0.00,vanprod-2.5-rc3,2013-02-20 07:15:00,
2013-02-20 00:20:00,25.0,12.7,29.57,East,85,1.0,3.0,59,0.00,,,0.00,vanprod-2.5-rc3,2013-02-20 07:20:00,
2013-02-20 00:25:00,25.1,12.0,29.58,ENE,62,2.0,3.0,57,0.00,,,0.00,vanprod-2.5-rc3,2013-02-20 07:25:00,
2013-02-20 00:30:00,25.1,12.4,29.57,ENE,76,5.0,6.0,58,0.00,,,0.00,vanprod-2.5-rc3,2013-02-20 07:30:00,
2013-02-20 00:35:00,25.1,12.4,29.57,ENE,58,3.0,3.0,58,0.00,,,0.00,vanprod-2.5-rc3,2013-02-20 07:35:00,
2013-02-20 00:40:00,24.9,12.6,29.57,ENE,72,5.0,5.0,59,0.00,,,0.00,vanprod-2.5-rc3,2013-02-20 07:40:00,
2013-02-20 00:45:00,24.6,13.5,29.57,ENE,69,5.0,5.0,62,0.00,,,0.00,vanprod-2.5-rc3,2013-02-20 07:45:00,
2013-02-20 00:50:00,24.3,13.5,29.57,East,82,4.0,6.0,63,0.00,,,0.00,vanprod-2.5-rc3,2013-02-20 07:50:00,
2013-02-20 00:55:00,24.0,13.6,29.57,East,91,4.0,4.0,64,0.00,,,0.00,vanprod-2.5-rc3,2013-02-20 07:55:00,
2013-02-20 01:00:00,23.8,13.4,29.57,East,82,7.0,7.0,64,0.00,,,0.00,vanprod-2.5-rc3,2013-02-20 08:00:00,
2013-02-20 01:05:00,23.8,13.8,29.57,East,86,8.0,10.0,65,0.00,,,0.00,vanprod-2.5-rc3,2013-02-20 08:05:00,
2013-02-20 01:10:00,24.0,13.2,29.56,ENE,67,6.0,6.0,63,0.00,,,0.00,vanprod-2.5-rc3,2013-02-20 08:10:00,
2013-02-20 01:15:00,24.2,13.4,29.56,ENE,70,5.0,7.0,63,0.00,,,0.00,vanprod-2.5-rc3,2013-02-20 08:15:00,
2013-02-20 01:20:00,24.1,13.7,29.56,East,93,5.0,5.0,64,0.00,,,0.00,vanprod-2.5-rc3,2013-02-20 08:20:00,
2013-02-20 01:25:00,24.0,13.6,29.55,East,84,6.0,8.0,64,0.00,,,0.00,vanprod-2.5-rc3,2013-02-20 08:25:00,
2013-02-20 01:30:00,23.9,13.5,29.55,East,92,7.0,8.0,64,0.00,,,0.00,vanprod-2.5-rc3,2013-02-20 08:30:00,
2013-02-20 01:35:00,23.9,13.5,29.55,East,89,6.0,10.0,64,0.00,,,0.00,vanprod-2.5-rc3,2013-02-20 08:35:00,
2013-02-20 01:40:00,24.0,13.2,29.55,East,84,8.0,8.0,63,0.00,,,0.00,vanprod-2.5-rc3,2013-02-20 08:40:00,
2013-02-20 01:45:00,24.4,13.3,29.55,East,90,7.0,11.0,62,0.00,,,0.00,vanprod-2.5-rc3,2013-02-20 08:45:00,
2013-02-20 01:50:00,24.7,12.8,29.56,East,98,8.0,8.0,60,0.00,,,0.00,vanprod-2.5-rc3,2013-02-20 08:50:00,
2013-02-20 01:55:00,25.0,13.1,29.56,East,98,7.0,12.0,60,0.00,,,0.00,vanprod-2.5-rc3,2013-02-20 08:55:00,
2013-02-20 02:00:00,25.2,13.3,29.56,East,87,8.0,8.0,60,0.00,,,0.00,vanprod-2.5-rc3,2013-02-20 09:00:00,
2013-02-20 02:05:00,25.3,13.0,29.56,East,92,5.0,5.0,59,0.00,,,0.00,vanprod-2.5-rc3,2013-02-20 09:05:00,
2013-02-20 02:10:00,25.3,13.0,29.56,East,95,5.0,5.0,59,0.00,,,0.00,vanprod-2.5-rc3,2013-02-20 09:10:00,
2013-02-20 02:15:00,25.2,12.5,29.56,East,80,6.0,9.0,58,0.00,,,0.00,vanprod-2.5-rc3,2013-02-20 09:15:00,
2013-02-20 02:20:00,25.1,12.4,29.56,East,95,2.0,2.0,58,0.00,,,0.00,vanprod-2.5-rc3,2013-02-20 09:20:00,
2013-02-20 02:25:00,25.0,12.7,29.56,ESE,121,0.0,0.0,59,0.00,,,0.00,vanprod-2.5-rc3,2013-02-20 09:25:00,
2013-02-20 02:30:00,24.8,13.6,29.56,SE,136,0.0,0.0,62,0.00,,,0.00,vanprod-2.5-rc3,2013-02-20 09:30:00,
2013-02-20 02:35:00,24.1,13.7,29.57,SE,136,0.0,0.0,64,0.00,,,0.00,vanprod-2.5-rc3,2013-02-20 09:35:00,
2013-02-20 02:40:00,23.4,13.4,29.57,SE,143,0.0,0.0,65,0.00,,,0.00,vanprod-2.5-rc3,2013-02-20 09:40:00,
2013-02-20 02:45:00,22.8,12.8,29.57,SSE,156,0.0,0.0,65,0.00,,,0.00,vanprod-2.5-rc3,2013-02-20 09:45:00,
2013-02-20 02:50:00,22.5,12.9,29.57,SSE,156,0.0,0.0,66,0.00,,,0.00,vanprod-2.5-rc3,2013-02-20 09:50:00,
2013-02-20 02:55:00,22.2,12.2,29.56,SSE,155,0.0,0.0,65,0.00,,,0.00,vanprod-2.5-rc3,2013-02-20 09:55:00,
2013-02-20 03:00:00,22.2,12.2,29.54,SSE,155,0.0,0.0,65,0.00,,,0.00,vanprod-2.5-rc3,2013-02-20 10:00:00,
2013-02-20 03:05:00,22.4,11.7,29.54,ENE,74,6.0,9.0,63,0.00,,,0.00,vanprod-2.5-rc3,2013-02-20 10:05:00,
2013-02-20 03:10:00,23.1,12.4,29.54,East,95,4.0,4.0,63,0.00,,,0.00,vanprod-2.5-rc3,2013-02-20 10:10:00,
2013-02-20 03:15:00,23.9,12.4,29.55,ENE,74,9.0,9.0,61,0.00,,,0.00,vanprod-2.5-rc3,2013-02-20 10:15:00,
2013-02-20 03:20:00,24.6,12.7,29.55,ENE,77,7.0,7.0,60,0.00,,,0.00,vanprod-2.5-rc3,2013-02-20 10:20:00,
2013-02-20 03:25:00,24.8,12.5,29.55,East,87,4.0,4.0,59,0.00,,,0.00,vanprod-2.5-rc3,2013-02-20 10:25:00,
2013-02-20 03:30:00,24.7,12.0,29.55,ENE,74,3.0,3.0,58,0.00,,,0.00,vanprod-2.5-rc3,2013-02-20 10:30:00,
2013-02-20 03:35:00,24.6,11.9,29.55,ENE,71,6.0,6.0,58,0.00,,,0.00,vanprod-2.5-rc3,2013-02-20 10:35:00,
2013-02-20 03:40:00,24.5,12.2,29.55,East,85,5.0,5.0,59,0.00,,,0.00,vanprod-2.5-rc3,2013-02-20 10:40:00,
2013-02-20 03:45:00,24.4,12.1,29.55,East,85,3.0,3.0,59,0.00,,,0.00,vanprod-2.5-rc3,2013-02-20 10:45:00,
2013-02-20 03:50:00,24.2,12.0,29.55,East,87,0.0,0.0,59,0.00,,,0.00,vanprod-2.5-rc3,2013-02-20 10:50:00,
2013-02-20 03:55:00,24.3,11.7,29.55,East,87,0.0,0.0,58,0.00,,,0.00,vanprod-2.5-rc3,2013-02-20 10:55:00,
2013-02-20 04:00:00,24.3,11.7,29.55,East,87,0.0,0.0,58,0.00,,,0.00,vanprod-2.5-rc3,2013-02-20 11:00:00,
2013-02-20 04:05:00,24.2,12.7,29.55,East,87,0.0,0.0,61,0.00,,,0.00,vanprod-2.5-rc3,2013-02-20 11:05:00,
2013-02-20 04:10:00,23.9,11.3,29.55,ENE,72,3.0,4.0,58,0.00,,,0.00,vanprod-2.5-rc3,2013-02-20 11:10:00,
2013-02-20 04:16:00,23.8,11.6,29.55,SE,132,0.0,0.0,59,0.00,,,0.00,vanprod-2.5-rc3,2013-02-20 11:16:00,
2013-02-20 04:21:00,23.5,12.4,29.55,SSE,157,1.0,1.0,62,0.00,,,0.00,vanprod-2.5-rc3,2013-02-20 11:21:00,
2013-02-20 04:26:00,23.3,12.6,29.54,SSE,157,0.0,0.0,63,0.00,,,0.00,vanprod-2.5-rc3,2013-02-20 11:26:00,
2013-02-20 04:31:00,22.7,12.4,29.54,SSE,160,0.0,0.0,64,0.00,,,0.00,vanprod-2.5-rc3,2013-02-20 11:31:00,
2013-02-20 04:36:00,22.4,11.7,29.54,SSE,159,0.0,0.0,63,0.00,,,0.00,vanprod-2.5-rc3,2013-02-20 11:36:00,
2013-02-20 04:42:00,22.3,11.3,29.54,SSE,159,0.0,0.0,62,0.00,,,0.00,vanprod-2.5-rc3,2013-02-20 11:42:00,
2013-02-20 04:47:00,22.2,11.2,29.54,SSE,159,1.0,3.0,62,0.00,,,0.00,vanprod-2.5-rc3,2013-02-20 11:47:00,
2013-02-20 04:52:00,22.1,11.4,29.54,SSE,157,4.0,4.0,63,0.00,,,0.00,vanprod-2.5-rc3,2013-02-20 11:52:00,
2013-02-20 04:57:00,22.0,11.3,29.55,SSE,149,0.0,0.0,63,0.00,,,0.00,vanprod-2.5-rc3,2013-02-20 11:57:00,
2013-02-20 05:02:00,21.8,11.2,29.55,SSE,149,3.0,4.0,63,0.00,,,0.00,vanprod-2.5-rc3,2013-02-20 12:02:00,
2013-02-20 05:07:00,21.7,11.1,29.55,SSE,149,1.0,3.0,63,0.00,,,0.00,vanprod-2.5-rc3,2013-02-20 12:07:00,
2013-02-20 05:12:00,21.6,11.0,29.56,SSE,149,0.0,0.0,63,0.00,,,0.00,vanprod-2.5-rc3,2013-02-20 12:12:00,
2013-02-20 05:17:00,21.6,11.3,29.56,SSE,150,0.0,0.0,64,0.00,,,0.00,vanprod-2.5-rc3,2013-02-20 12:17:00,
2013-02-20 05:22:00,21.4,11.1,29.56,SSE,149,2.0,2.0,64,0.00,,,0.00,vanprod-2.5-rc3,2013-02-20 12:22:00,
2013-02-20 05:27:00,21.3,11.0,29.55,ENE,76,0.0,2.0,64,0.00,,,0.00,vanprod-2.5-rc3,2013-02-20 12:27:00,
2013-02-20 05:32:00,21.5,11.2,29.56,East,89,0.0,0.0,64,0.00,,,0.00,vanprod-2.5-rc3,2013-02-20 12:32:00,
2013-02-20 05:37:00,21.6,11.7,29.56,SE,129,0.0,0.0,65,0.00,,,0.00,vanprod-2.5-rc3,2013-02-20 12:37:00,
2013-02-20 05:43:00,21.7,11.4,29.57,ESE,123,0.0,0.0,64,0.00,,,0.00,vanprod-2.5-rc3,2013-02-20 12:43:00,
2013-02-20 05:48:00,21.8,11.5,29.56,ESE,119,0.0,0.0,64,0.00,,,0.00,vanprod-2.5-rc3,2013-02-20 12:48:00,
2013-02-20 05:53:00,21.8,11.5,29.56,East,90,4.0,5.0,64,0.00,,,0.00,vanprod-2.5-rc3,2013-02-20 12:53:00,
2013-02-20 05:58:00,21.8,10.8,29.55,NE,53,7.0,8.0,62,0.00,,,0.00,vanprod-2.5-rc3,2013-02-20 12:58:00,
2013-02-20 06:03:00,22.1,12.1,29.55,South,178,3.0,3.0,65,0.00,,,0.00,vanprod-2.5-rc3,2013-02-20 13:03:00,
2013-02-20 06:09:00,22.1,11.1,29.54,NE,48,0.0,0.0,62,0.00,,,0.00,vanprod-2.5-rc3,2013-02-20 13:09:00,
2013-02-20 06:14:00,22.3,11.6,29.54,SSW,193,2.0,0.0,63,0.00,,,0.00,vanprod-2.5-rc3,2013-02-20 13:14:00,
2013-02-20 06:19:00,22.3,11.3,29.55,WSW,241,2.0,4.0,62,0.00,,,0.00,vanprod-2.5-rc3,2013-02-20 13:19:00,
2013-02-20 06:24:00,22.2,11.9,29.54,SSW,207,0.0,0.0,64,0.00,,,0.00,vanprod-2.5-rc3,2013-02-20 13:24:00,
2013-02-20 06:29:00,21.9,11.6,29.54,SSW,207,0.0,0.0,64,0.00,,,0.00,vanprod-2.5-rc3,2013-02-20 13:29:00,
2013-02-20 06:34:00,21.6,11.3,29.54,SSW,207,0.0,0.0,64,0.00,,,0.00,vanprod-2.5-rc3,2013-02-20 13:34:00,
2013-02-20 06:39:00,21.6,11.3,29.54,SSW,207,0.0,0.0,64,0.00,,,0.00,vanprod-2.5-rc3,2013-02-20 13:39:00,
2013-02-20 06:44:00,21.5,11.6,29.54,SSW,207,0.0,0.0,65,0.00,,,0.00,vanprod-2.5-rc3,2013-02-20 13:44:00,
2013-02-20 06:49:00,21.4,11.5,29.54,SSW,207,0.0,0.0,65,0.00,,,0.00,vanprod-2.5-rc3,2013-02-20 13:49:00,
2013-02-20 06:54:00,21.2,11.6,29.54,SSW,207,0.0,0.0,66,0.00,,,0.00,vanprod-2.5-rc3,2013-02-20 13:54:00,
2013-02-20 07:00:00,21.1,11.5,29.54,SSW,207,0.0,0.0,66,0.00,,,0.00,vanprod-2.5-rc3,2013-02-20 14:00:00,
2013-02-20 07:05:00,21.1,11.2,29.55,SSW,202,0.0,0.0,65,0.00,,,0.00,vanprod-2.5-rc3,2013-02-20 14:05:00,
2013-02-20 07:10:00,21.9,11.3,29.55,SSW,197,0.0,0.0,63,0.00,,,0.00,vanprod-2.5-rc3,2013-02-20 14:10:00,
2013-02-20 07:15:00,22.4,11.0,29.55,SSW,195,0.0,3.0,61,0.00,,,0.00,vanprod-2.5-rc3,2013-02-20 14:15:00,
2013-02-20 07:20:00,22.9,11.1,29.54,South,169,0.0,0.0,60,0.00,,,0.00,vanprod-2.5-rc3,2013-02-20 14:20:00,
2013-02-20 07:25:00,23.3,12.6,29.54,South,174,0.0,1.0,63,0.00,,,0.00,vanprod-2.5-rc3,2013-02-20 14:25:00,
2013-02-20 07:31:00,23.1,11.7,29.55,South,173,0.0,0.0,61,0.00,,,0.00,vanprod-2.5-rc3,2013-02-20 14:31:00,
2013-02-20 07:36:00,23.3,12.2,29.55,SSE,152,1.0,1.0,62,0.00,,,0.00,vanprod-2.5-rc3,2013-02-20 14:36:00,
2013-02-20 07:42:00,23.5,12.0,29.55,NE,51,0.0,0.0,61,0.00,,,0.00,vanprod-2.5-rc3,2013-02-20 14:42:00,
2013-02-20 07:47:00,23.4,12.7,29.55,ENE,78,0.0,0.0,63,0.00,,,0.00,vanprod-2.5-rc3,2013-02-20 14:47:00,
2013-02-20 07:52:00,23.3,12.9,29.54,ENE,78,0.0,0.0,64,0.00,,,0.00,vanprod-2.5-rc3,2013-02-20 14:52:00,
2013-02-20 07:57:00,23.2,12.5,29.55,ENE,78,0.0,0.0,63,0.00,,,0.00,vanprod-2.5-rc3,2013-02-20 14:57:00,
2013-02-20 08:02:00,23.3,12.2,29.56,ENE,76,2.0,3.0,62,0.00,,,0.00,vanprod-2.5-rc3,2013-02-20 15:02:00,
2013-02-20 08:07:00,23.4,12.7,29.56,ENE,76,0.0,0.0,63,0.00,,,0.00,vanprod-2.5-rc3,2013-02-20 15:07:00,
2013-02-20 08:13:00,23.7,13.3,29.54,SSE,167,1.0,2.0,64,0.00,,,0.00,vanprod-2.5-rc3,2013-02-20 15:13:00,
2013-02-20 08:18:00,23.9,12.8,29.55,NW,318,1.0,1.0,62,0.00,,,0.00,vanprod-2.5-rc3,2013-02-20 15:18:00,
2013-02-20 08:23:00,24.2,13.8,29.55,SSW,208,0.0,0.0,64,0.00,,,0.00,vanprod-2.5-rc3,2013-02-20 15:23:00,
2013-02-20 08:28:00,24.3,13.9,29.54,SSW,208,0.0,0.0,64,0.00,,,0.00,vanprod-2.5-rc3,2013-02-20 15:28:00,
2013-02-20 08:33:00,24.5,13.7,29.54,SSW,208,0.0,0.0,63,0.00,,,0.00,vanprod-2.5-rc3,2013-02-20 15:33:00,
2013-02-20 08:38:00,24.7,13.5,29.54,SSW,208,0.0,0.0,62,0.00,,,0.00,vanprod-2.5-rc3,2013-02-20 15:38:00,
2013-02-20 08:43:00,24.9,13.4,29.54,SSW,208,0.0,0.0,61,0.00,,,0.00,vanprod-2.5-rc3,2013-02-20 15:43:00,
2013-02-20 08:48:00,25.2,14.4,29.54,SSW,208,0.0,0.0,63,0.00,,,0.00,vanprod-2.5-rc3,2013-02-20 15:48:00,
2013-02-20 08:53:00,25.7,14.1,29.55,SSW,207,0.0,0.0,61,0.00,,,0.00,vanprod-2.5-rc3,2013-02-20 15:53:00,
2013-02-20 08:58:00,26.2,13.8,29.55,SSW,194,2.0,0.0,59,0.00,,,0.00,vanprod-2.5-rc3,2013-02-20 15:58:00,
2013-02-20 09:03:00,26.9,14.1,29.54,SSE,165,0.0,0.0,58,0.00,,,0.00,vanprod-2.5-rc3,2013-02-20 16:03:00,
2013-02-20 09:08:00,27.5,14.3,29.55,SSE,165,0.0,0.0,57,0.00,,,0.00,vanprod-2.5-rc3,2013-02-20 16:08:00,
2013-02-20 09:13:00,28.2,13.3,29.55,SSE,164,1.0,3.0,53,0.00,,,0.00,vanprod-2.5-rc3,2013-02-20 16:13:00,
2013-02-20 09:18:00,28.9,13.1,29.55,SSE,161,1.0,2.0,51,0.00,,,0.00,vanprod-2.5-rc3,2013-02-20 16:18:00,
2013-02-20 09:23:00,29.5,14.1,29.54,East,101,4.0,4.0,52,0.00,,,0.00,vanprod-2.5-rc3,2013-02-20 16:23:00,
2013-02-20 09:28:00,29.9,14.4,29.54,SE,140,0.0,0.0,52,0.00,,,0.00,vanprod-2.5-rc3,2013-02-20 16:28:00,
2013-02-20 09:33:00,30.1,15.0,29.53,SSE,154,1.0,2.0,53,0.00,,,0.00,vanprod-2.5-rc3,2013-02-20 16:33:00,
2013-02-20 09:38:00,30.3,15.7,29.53,SSE,165,0.0,0.0,54,0.00,,,0.00,vanprod-2.5-rc3,2013-02-20 16:38:00,
2013-02-20 09:43:00,29.7,16.3,29.53,SSE,165,0.0,0.0,57,0.00,,,0.00,vanprod-2.5-rc3,2013-02-20 16:43:00,
2013-02-20 09:48:00,29.4,16.1,29.54,SSW,203,0.0,0.0,57,0.00,,,0.00,vanprod-2.5-rc3,2013-02-20 16:48:00,
2013-02-20 09:53:00,29.5,16.2,29.52,WNW,297,1.0,3.0,57,0.00,,,0.00,vanprod-2.5-rc3,2013-02-20 16:53:00,
2013-02-20 09:58:00,30.0,16.2,29.52,North,355,2.0,2.0,56,0.00,,,0.00,vanprod-2.5-rc3,2013-02-20 16:58:00,
2013-02-20 10:03:00,30.5,16.3,29.54,North,355,0.0,0.0,55,0.00,,,0.00,vanprod-2.5-rc3,2013-02-20 17:03:00,
2013-02-20 10:08:00,31.3,17.4,29.53,NW,313,0.0,0.0,56,0.00,,,0.00,vanprod-2.5-rc3,2013-02-20 17:08:00,
2013-02-20 10:13:00,31.9,16.7,29.53,West,264,0.0,0.0,53,0.00,,,0.00,vanprod-2.5-rc3,2013-02-20 17:13:00,
2013-02-20 10:18:00,32.5,18.1,29.52,SW,217,0.0,0.0,55,0.00,,,0.00,vanprod-2.5-rc3,2013-02-20 17:18:00,
2013-02-20 10:23:00,33.1,17.4,29.54,SW,217,0.0,0.0,52,0.00,,,0.00,vanprod-2.5-rc3,2013-02-20 17:23:00,
2013-02-20 10:28:00,33.5,18.2,29.52,SW,217,0.0,0.0,53,0.00,,,0.00,vanprod-2.5-rc3,2013-02-20 17:28:00,
2013-02-20 10:33:00,33.5,17.3,29.54,SW,217,1.0,0.0,51,0.00,,,0.00,vanprod-2.5-rc3,2013-02-20 17:33:00,
2013-02-20 10:38:00,33.7,16.6,29.52,SW,217,0.0,0.0,49,0.00,,,0.00,vanprod-2.5-rc3,2013-02-20 17:38:00,
2013-02-20 10:43:00,34.1,17.4,29.54,SW,217,0.0,0.0,50,0.00,,,0.00,vanprod-2.5-rc3,2013-02-20 17:43:00,
2013-02-20 10:48:00,34.4,18.2,29.51,SW,217,0.0,0.0,51,0.00,,,0.00,vanprod-2.5-rc3,2013-02-20 17:48:00,
2013-02-20 10:53:00,34.8,17.1,29.52,East,83,2.0,2.0,48,0.00,,,0.00,vanprod-2.5-rc3,2013-02-20 17:53:00,
2013-02-20 10:58:00,35.5,17.3,29.52,ENE,61,0.0,0.0,47,0.00,,,0.00,vanprod-2.5-rc3,2013-02-20 17:58:00,
2013-02-20 11:03:00,35.9,18.1,29.52,SSW,194,1.0,0.0,48,0.00,,,0.00,vanprod-2.5-rc3,2013-02-20 18:03:00,
2013-02-20 11:08:00,36.0,16.7,29.52,SSW,194,0.0,0.0,45,0.00,,,0.00,vanprod-2.5-rc3,2013-02-20 18:08:00,
2013-02-20 11:13:00,36.2,17.9,29.52,SSW,193,0.0,0.0,47,0.00,,,0.00,vanprod-2.5-rc3,2013-02-20 18:13:00,
2013-02-20 11:18:00,36.6,17.8,29.51,SSW,193,0.0,0.0,46,0.00,,,0.00,vanprod-2.5-rc3,2013-02-20 18:18:00,
2013-02-20 11:23:00,36.6,16.8,29.51,SSW,193,0.0,0.0,44,0.00,,,0.00,vanprod-2.5-rc3,2013-02-20 18:23:00,
2013-02-20 11:28:00,36.7,16.9,29.51,SSW,193,0.0,0.0,44,0.00,,,0.00,vanprod-2.5-rc3,2013-02-20 18:28:00,
2013-02-20 11:33:00,36.8,17.5,29.51,SSW,193,0.0,0.0,45,0.00,,,0.00,vanprod-2.5-rc3,2013-02-20 18:33:00,
2013-02-20 11:38:00,36.9,18.1,29.51,SSW,209,0.0,0.0,46,0.00,,,0.00,vanprod-2.5-rc3,2013-02-20 18:38:00,
2013-02-20 11:43:00,37.1,18.8,29.51,SSW,209,0.0,0.0,47,0.00,,,0.00,vanprod-2.5-rc3,2013-02-20 18:43:00,
2013-02-20 11:48:00,37.4,18.5,29.50,SSW,209,1.0,2.0,46,0.00,,,0.00,vanprod-2.5-rc3,2013-02-20 18:48:00,
2013-02-20 11:53:00,37.8,19.4,29.51,SSW,207,0.0,0.0,47,0.00,,,0.00,vanprod-2.5-rc3,2013-02-20 18:53:00,
2013-02-20 11:58:00,38.5,19.0,29.50,SSW,195,4.0,4.0,45,0.00,,,0.00,vanprod-2.5-rc3,2013-02-20 18:58:00,
2013-02-20 12:03:00,39.2,18.6,29.50,South,191,2.0,3.0,43,0.00,,,0.00,vanprod-2.5-rc3,2013-02-20 19:03:00,
2013-02-20 12:08:00,39.7,18.5,29.49,SSW,196,2.0,2.0,42,0.00,,,0.00,vanprod-2.5-rc3,2013-02-20 19:08:00,
2013-02-20 12:13:00,39.9,17.6,29.48,SSW,196,0.0,1.0,40,0.00,,,0.00,vanprod-2.5-rc3,2013-02-20 19:13:00,
2013-02-20 12:18:00,40.1,17.7,29.47,SSW,195,0.0,0.0,40,0.00,,,0.00,vanprod-2.5-rc3,2013-02-20 19:18:00,
2013-02-20 12:23:00,40.5,16.9,29.47,SW,227,3.0,3.0,38,0.00,,,0.00,vanprod-2.5-rc3,2013-02-20 19:23:00,
2013-02-20 12:28:00,40.9,16.6,29.47,SSW,208,3.0,5.0,37,0.00,,,0.00,vanprod-2.5-rc3,2013-02-20 19:28:00,
2013-02-20 12:33:00,41.2,17.5,29.46,SW,220,3.0,4.0,38,0.00,,,0.00,vanprod-2.5-rc3,2013-02-20 19:33:00,
2013-02-20 12:38:00,41.2,17.5,29.46,SSW,211,4.0,4.0,38,0.00,,,0.00,vanprod-2.5-rc3,2013-02-20 19:38:00,
2013-02-20 12:43:00,41.5,17.2,29.46,SW,233,4.0,4.0,37,0.00,,,0.00,vanprod-2.5-rc3,2013-02-20 19:43:00,
2013-02-20 12:48:00,41.8,17.5,29.46,SSW,212,4.0,4.0,37,0.00,,,0.00,vanprod-2.5-rc3,2013-02-20 19:48:00,
2013-02-20 12:53:00,42.3,17.3,29.46,SW,220,3.0,4.0,36,0.00,,,0.00,vanprod-2.5-rc3,2013-02-20 19:53:00,
2013-02-20 12:58:00,42.8,18.3,29.45,SW,227,4.0,5.0,37,0.00,,,0.00,vanprod-2.5-rc3,2013-02-20 19:58:00,
2013-02-20 13:03:00,43.3,18.8,29.44,SW,230,8.0,8.0,37,0.00,,,0.00,vanprod-2.5-rc3,2013-02-20 20:03:00,
2013-02-20 13:08:00,43.8,17.9,29.45,SW,225,6.0,6.0,35,0.00,,,0.00,vanprod-2.5-rc3,2013-02-20 20:08:00,
2013-02-20 13:13:00,44.0,18.8,29.44,SSW,205,3.0,5.0,36,0.00,,,0.00,vanprod-2.5-rc3,2013-02-20 20:13:00,
2013-02-20 13:18:00,44.3,19.0,29.44,SW,228,6.0,10.0,36,0.00,,,0.00,vanprod-2.5-rc3,2013-02-20 20:18:00,
2013-02-20 13:23:00,44.1,19.5,29.43,SW,228,10.0,12.0,37,0.00,,,0.00,vanprod-2.5-rc3,2013-02-20 20:23:00,
2013-02-20 13:28:00,44.1,20.1,29.43,SW,226,9.0,12.0,38,0.00,,,0.00,vanprod-2.5-rc3,2013-02-20 20:28:00,
2013-02-20 13:33:00,44.3,19.7,29.43,SW,224,11.0,11.0,37,0.00,,,0.00,vanprod-2.5-rc3,2013-02-20 20:33:00,
2013-02-20 13:38:00,44.4,18.5,29.43,WSW,250,13.0,13.0,35,0.00,,,0.00,vanprod-2.5-rc3,2013-02-20 20:38:00,
2013-02-20 13:43:00,44.1,18.2,29.42,WSW,245,10.0,10.0,35,0.00,,,0.00,vanprod-2.5-rc3,2013-02-20 20:43:00,
2013-02-20 13:48:00,44.3,19.0,29.42,SW,214,12.0,12.0,36,0.00,,,0.00,vanprod-2.5-rc3,2013-02-20 20:48:00,
2013-02-20 13:53:00,44.6,18.7,29.42,SW,214,10.0,16.0,35,0.00,,,0.00,vanprod-2.5-rc3,2013-02-20 20:53:00,
2013-02-20 13:58:00,44.4,19.8,29.41,SW,214,13.0,13.0,37,0.00,,,0.00,vanprod-2.5-rc3,2013-02-20 20:58:00,
2013-02-20 14:03:00,44.4,19.8,29.41,SW,221,10.0,12.0,37,0.00,,,0.00,vanprod-2.5-rc3,2013-02-20 21:03:00,
2013-02-20 14:08:00,44.3,19.7,29.41,SW,222,11.0,13.0,37,0.00,,,0.00,vanprod-2.5-rc3,2013-02-20 21:08:00,
2013-02-20 14:13:00,44.3,20.3,29.41,WSW,238,11.0,15.0,38,0.00,,,0.00,vanprod-2.5-rc3,2013-02-20 21:13:00,
2013-02-20 14:18:00,44.3,19.7,29.41,WSW,240,11.0,11.0,37,0.00,,,0.00,vanprod-2.5-rc3,2013-02-20 21:18:00,
2013-02-20 14:23:00,44.1,20.7,29.41,WSW,250,11.0,15.0,39,0.00,,,0.00,vanprod-2.5-rc3,2013-02-20 21:23:00,
2013-02-20 14:28:00,44.0,18.8,29.41,WSW,243,15.0,15.0,36,0.00,,,0.00,vanprod-2.5-rc3,2013-02-20 21:28:00,
2013-02-20 14:33:00,44.1,20.1,29.40,SW,231,13.0,16.0,38,0.00,,,0.00,vanprod-2.5-rc3,2013-02-20 21:33:00,
2013-02-20 14:38:00,44.1,20.1,29.40,SW,225,16.0,16.0,38,0.00,,,0.00,vanprod-2.5-rc3,2013-02-20 21:38:00,
2013-02-20 14:43:00,44.0,20.0,29.40,WSW,237,14.0,14.0,38,0.00,,,0.00,vanprod-2.5-rc3,2013-02-20 21:43:00,
2013-02-20 14:48:00,44.0,20.0,29.40,SW,229,12.0,13.0,38,0.00,,,0.00,vanprod-2.5-rc3,2013-02-20 21:48:00,
2013-02-20 14:53:00,43.9,20.0,29.40,SW,228,13.0,13.0,38,0.00,,,0.00,vanprod-2.5-rc3,2013-02-20 21:53:00,
2013-02-20 14:58:00,44.0,20.0,29.40,SW,228,10.0,14.0,38,0.00,,,0.00,vanprod-2.5-rc3,2013-02-20 21:58:00,
2013-02-20 15:03:00,44.1,20.7,29.39,SW,233,14.0,19.0,39,0.00,,,0.00,vanprod-2.5-rc3,2013-02-20 22:03:00,
2013-02-20 15:08:00,44.0,21.2,29.39,SW,226,14.0,16.0,40,0.00,,,0.00,vanprod-2.5-rc3,2013-02-20 22:08:00,
2013-02-20 15:13:00,44.0,20.0,29.39,WSW,249,14.0,14.0,38,0.00,,,0.00,vanprod-2.5-rc3,2013-02-20 22:13:00,
2013-02-20 15:18:00,43.8,20.5,29.39,WSW,242,13.0,13.0,39,0.00,,,0.00,vanprod-2.5-rc3,2013-02-20 22:18:00,
2013-02-20 15:23:00,43.7,19.8,29.39,SW,233,13.0,16.0,38,0.00,,,0.00,vanprod-2.5-rc3,2013-02-20 22:23:00,
2013-02-20 15:28:00,43.6,20.3,29.39,WSW,240,13.0,13.0,39,0.00,,,0.00,vanprod-2.5-rc3,2013-02-20 22:28:00,
2013-02-20 15:33:00,43.2,21.1,29.40,SW,235,8.0,14.0,41,0.00,,,0.00,vanprod-2.5-rc3,2013-02-20 22:33:00,
2013-02-20 15:38:00,43.0,19.8,29.40,WSW,242,13.0,13.0,39,0.00,,,0.00,vanprod-2.5-rc3,2013-02-20 22:38:00,
2013-02-20 15:43:00,43.0,20.9,29.40,WSW,244,11.0,11.0,41,0.00,,,0.00,vanprod-2.5-rc3,2013-02-20 22:43:00,
2013-02-20 15:48:00,42.9,19.7,29.41,WSW,253,13.0,13.0,39,0.00,,,0.00,vanprod-2.5-rc3,2013-02-20 22:48:00,
2013-02-20 15:53:00,42.8,20.2,29.41,SW,228,12.0,12.0,40,0.00,,,0.00,vanprod-2.5-rc3,2013-02-20 22:53:00,
2013-02-20 15:58:00,42.6,20.0,29.41,SW,224,9.0,9.0,40,0.00,,,0.00,vanprod-2.5-rc3,2013-02-20 22:58:00,
2013-02-20 16:03:00,42.5,19.9,29.40,WSW,241,11.0,11.0,40,0.00,,,0.00,vanprod-2.5-rc3,2013-02-20 23:03:00,
2013-02-20 16:08:00,42.2,19.0,29.40,SW,214,5.0,14.0,39,0.00,,,0.00,vanprod-2.5-rc3,2013-02-20 23:08:00,
2013-02-20 16:13:00,42.1,20.1,29.40,WSW,247,10.0,12.0,41,0.00,,,0.00,vanprod-2.5-rc3,2013-02-20 23:13:00,
2013-02-20 16:18:00,41.8,22.0,29.40,West,270,8.0,11.0,45,0.00,,,0.00,vanprod-2.5-rc3,2013-02-20 23:18:00,
2013-02-20 16:23:00,41.2,21.0,29.41,West,268,10.0,12.0,44,0.00,,,0.00,vanprod-2.5-rc3,2013-02-20 23:23:00,
2013-02-20 16:28:00,41.2,21.0,29.41,WSW,244,11.0,14.0,44,0.00,,,0.00,vanprod-2.5-rc3,2013-02-20 23:28:00,
2013-02-20 16:33:00,41.1,21.9,29.41,West,265,11.0,11.0,46,0.00,,,0.00,vanprod-2.5-rc3,2013-02-20 23:33:00,
2013-02-20 16:38:00,40.9,21.2,29.41,West,263,10.0,10.0,45,0.00,,,0.00,vanprod-2.5-rc3,2013-02-20 23:38:00,
2013-02-20 16:43:00,40.9,21.2,29.41,WSW,253,13.0,13.0,45,0.00,,,0.00,vanprod-2.5-rc3,2013-02-20 23:43:00,
2013-02-20 16:48:00,40.7,21.5,29.41,WSW,256,8.0,9.0,46,0.00,,,0.00,vanprod-2.5-rc3,2013-02-20 23:48:00,
2013-02-20 16:53:00,40.6,21.5,29.42,West,266,9.0,11.0,46,0.00,,,0.00,vanprod-2.5-rc3,2013-02-20 23:53:00,
2013-02-20 16:58:00,40.4,20.8,29.42,West,272,9.0,10.0,45,0.00,,,0.00,vanprod-2.5-rc3,2013-02-20 23:58:00,
2013-02-20 17:03:00,40.0,21.4,29.41,WNW,283,9.0,9.0,47,0.00,,,0.00,vanprod-2.5-rc3,2013-02-21 00:03:00,
2013-02-20 17:08:00,39.4,21.4,29.43,WNW,287,10.0,11.0,48,0.00,,,0.00,vanprod-2.5-rc3,2013-02-21 00:08:00,
2013-02-20 17:13:00,39.4,21.8,29.43,West,279,12.0,12.0,49,0.00,,,0.00,vanprod-2.5-rc3,2013-02-21 00:13:00,
2013-02-20 17:18:00,39.6,20.5,29.42,WSW,258,12.0,16.0,46,0.00,,,0.00,vanprod-2.5-rc3,2013-02-21 00:18:00,
2013-02-20 17:23:00,39.7,21.1,29.42,West,262,15.0,15.0,47,0.00,,,0.00,vanprod-2.5-rc3,2013-02-21 00:23:00,
2013-02-20 17:28:00,39.6,21.5,29.43,WSW,258,10.0,10.0,48,0.00,,,0.00,vanprod-2.5-rc3,2013-02-21 00:28:00,
2013-02-20 17:33:00,39.6,20.5,29.43,West,268,15.0,15.0,46,0.00,,,0.00,vanprod-2.5-rc3,2013-02-21 00:33:00,
2013-02-20 17:38:00,39.6,21.5,29.43,West,260,16.0,16.0,48,0.00,,,0.00,vanprod-2.5-rc3,2013-02-21 00:38:00,
2013-02-20 17:43:00,39.3,21.8,29.44,WSW,239,12.0,14.0,49,0.00,,,0.00,vanprod-2.5-rc3,2013-02-21 00:43:00,
2013-02-20 17:48:00,39.1,21.6,29.45,WSW,240,10.0,11.0,49,0.00,,,0.00,vanprod-2.5-rc3,2013-02-21 00:48:00,
2013-02-20 17:53:00,39.0,21.5,29.45,SW,230,13.0,14.0,49,0.00,,,0.00,vanprod-2.5-rc3,2013-02-21 00:53:00,
2013-02-20 17:58:00,38.6,22.1,29.45,SSW,211,15.0,15.0,51,0.00,,,0.00,vanprod-2.5-rc3,2013-02-21 00:58:00,
2013-02-20 18:03:00,38.3,22.7,29.45,SSW,201,12.0,18.0,53,0.00,,,0.00,vanprod-2.5-rc3,2013-02-21 01:03:00,
2013-02-20 18:08:00,37.9,22.8,29.45,SSW,210,7.0,9.0,54,0.00,,,0.00,vanprod-2.5-rc3,2013-02-21 01:08:00,
2013-02-20 18:13:00,37.7,22.6,29.45,SW,217,12.0,13.0,54,0.00,,,0.00,vanprod-2.5-rc3,2013-02-21 01:13:00,
2013-02-20 18:18:00,37.6,21.6,29.45,SW,228,14.0,15.0,52,0.00,,,0.00,vanprod-2.5-rc3,2013-02-21 01:18:00,
2013-02-20 18:23:00,37.8,21.8,29.45,SSW,209,6.0,6.0,52,0.00,,,0.00,vanprod-2.5-rc3,2013-02-21 01:23:00,
2013-02-20 18:28:00,37.8,21.3,29.45,SSW,211,1.0,3.0,51,0.00,,,0.00,vanprod-2.5-rc3,2013-02-21 01:28:00,
2013-02-20 18:33:00,37.5,21.5,29.46,SW,234,3.0,3.0,52,0.00,,,0.00,vanprod-2.5-rc3,2013-02-21 01:33:00,
2013-02-20 18:38:00,37.7,21.7,29.46,WSW,250,0.0,0.0,52,0.00,,,0.00,vanprod-2.5-rc3,2013-02-21 01:38:00,
2013-02-20 18:43:00,37.5,21.5,29.46,WSW,244,0.0,0.0,52,0.00,,,0.00,vanprod-2.5-rc3,2013-02-21 01:43:00,
2013-02-20 18:48:00,37.3,21.8,29.45,WSW,244,0.0,0.0,53,0.00,,,0.00,vanprod-2.5-rc3,2013-02-21 01:48:00,
2013-02-20 18:53:00,37.1,21.6,29.45,West,259,4.0,4.0,53,0.00,,,0.00,vanprod-2.5-rc3,2013-02-21 01:53:00,
2013-02-20 18:58:00,36.9,22.7,29.46,SSW,212,1.0,2.0,56,0.00,,,0.00,vanprod-2.5-rc3,2013-02-21 01:58:00,
2013-02-20 19:03:00,36.8,22.6,29.46,WSW,246,1.0,0.0,56,0.00,,,0.00,vanprod-2.5-rc3,2013-02-21 02:03:00,
2013-02-20 19:08:00,36.8,23.0,29.46,WSW,240,2.0,3.0,57,0.00,,,0.00,vanprod-2.5-rc3,2013-02-21 02:08:00,
2013-02-20 19:13:00,36.7,24.5,29.46,West,260,7.0,10.0,61,0.00,,,0.00,vanprod-2.5-rc3,2013-02-21 02:13:00,
2013-02-20 19:18:00,36.7,23.3,29.46,WSW,256,4.0,4.0,58,0.00,,,0.00,vanprod-2.5-rc3,2013-02-21 02:18:00,
2013-02-20 19:23:00,36.5,23.1,29.47,West,268,7.0,11.0,58,0.00,,,0.00,vanprod-2.5-rc3,2013-02-21 02:23:00,
2013-02-20 19:28:00,36.4,23.0,29.46,West,267,10.0,11.0,58,0.00,,,0.00,vanprod-2.5-rc3,2013-02-21 02:28:00,
2013-02-20 19:33:00,36.4,23.5,29.46,West,266,7.0,12.0,59,0.00,,,0.00,vanprod-2.5-rc3,2013-02-21 02:33:00,
2013-02-20 19:38:00,36.4,23.5,29.46,West,261,9.0,9.0,59,0.00,,,0.00,vanprod-2.5-rc3,2013-02-21 02:38:00,
2013-02-20 19:43:00,36.3,23.4,29.46,West,270,9.0,10.0,59,0.00,,,0.00,vanprod-2.5-rc3,2013-02-21 02:43:00,
2013-02-20 19:48:00,36.1,23.6,29.46,West,268,8.0,10.0,60,0.00,,,0.00,vanprod-2.5-rc3,2013-02-21 02:48:00,
2013-02-20 19:53:00,36.2,23.7,29.46,WSW,244,12.0,13.0,60,0.00,,,0.00,vanprod-2.5-rc3,2013-02-21 02:53:00,
2013-02-20 19:58:00,36.0,23.9,29.48,SW,229,11.0,11.0,61,0.00,,,0.00,vanprod-2.5-rc3,2013-02-21 02:58:00,
2013-02-20 20:03:00,35.7,24.0,29.47,WSW,242,8.0,8.0,62,0.00,,,0.00,vanprod-2.5-rc3,2013-02-21 03:03:00,
2013-02-20 20:08:00,35.5,24.2,29.47,WSW,247,10.0,10.0,63,0.00,,,0.00,vanprod-2.5-rc3,2013-02-21 03:08:00,
2013-02-20 20:13:00,35.3,24.4,29.48,WSW,256,10.0,10.0,64,0.00,,,0.00,vanprod-2.5-rc3,2013-02-21 03:13:00,
2013-02-20 20:18:00,35.2,24.6,29.48,WSW,245,10.0,10.0,65,0.00,,,0.00,vanprod-2.5-rc3,2013-02-21 03:18:00,
2013-02-20 20:23:00,35.1,24.5,29.48,West,265,10.0,10.0,65,0.00,,,0.00,vanprod-2.5-rc3,2013-02-21 03:23:00,
2013-02-20 20:28:00,35.0,24.8,29.48,West,259,8.0,8.0,66,0.00,,,0.00,vanprod-2.5-rc3,2013-02-21 03:28:00,
2013-02-20 20:33:00,34.8,24.6,29.48,WSW,238,9.0,9.0,66,0.00,,,0.00,vanprod-2.5-rc3,2013-02-21 03:33:00,
2013-02-20 20:38:00,34.7,24.9,29.48,SSW,209,3.0,3.0,67,0.00,,,0.00,vanprod-2.5-rc3,2013-02-21 03:38:00,
2013-02-20 20:43:00,34.4,24.6,29.49,SSW,209,1.0,1.0,67,0.00,,,0.00,vanprod-2.5-rc3,2013-02-21 03:43:00,
2013-02-20 20:48:00,34.4,24.9,29.49,SSW,202,4.0,4.0,68,0.00,,,0.00,vanprod-2.5-rc3,2013-02-21 03:48:00,
2013-02-20 20:53:00,34.3,24.9,29.49,SW,218,2.0,2.0,68,0.00,,,0.00,vanprod-2.5-rc3,2013-02-21 03:53:00,
2013-02-20 20:58:00,34.1,25.0,29.50,SSW,196,1.0,0.0,69,0.00,,,0.00,vanprod-2.5-rc3,2013-02-21 03:58:00,
2013-02-20 21:03:00,34.0,24.9,29.50,SW,231,0.0,3.0,69,0.00,,,0.00,vanprod-2.5-rc3,2013-02-21 04:03:00,
2013-02-20 21:08:00,34.0,24.9,29.50,SW,215,2.0,2.0,69,0.00,,,0.00,vanprod-2.5-rc3,2013-02-21 04:08:00,
2013-02-20 21:13:00,34.0,24.9,29.50,SW,223,10.0,14.0,69,0.00,,,0.00,vanprod-2.5-rc3,2013-02-21 04:13:00,
2013-02-20 21:18:00,34.0,24.9,29.50,SSW,210,2.0,2.0,69,0.00,,,0.00,vanprod-2.5-rc3,2013-02-21 04:18:00,
2013-02-20 21:23:00,33.9,24.8,29.50,SSW,193,5.0,9.0,69,0.00,,,0.00,vanprod-2.5-rc3,2013-02-21 04:23:00,
2013-02-20 21:28:00,33.9,25.2,29.50,SSW,193,5.0,9.0,70,0.00,,,0.00,vanprod-2.5-rc3,2013-02-21 04:28:00,
2013-02-20 21:33:00,33.8,25.4,29.50,SSW,198,4.0,6.0,71,0.00,,,0.00,vanprod-2.5-rc3,2013-02-21 04:33:00,
2013-02-20 21:38:00,33.6,25.2,29.50,SSW,194,5.0,7.0,71,0.00,,,0.00,vanprod-2.5-rc3,2013-02-21 04:38:00,
2013-02-20 21:43:00,33.5,25.5,29.50,SSW,200,4.0,5.0,72,0.00,,,0.00,vanprod-2.5-rc3,2013-02-21 04:43:00,
2013-02-20 21:48:00,33.4,25.4,29.51,SSW,196,5.0,8.0,72,0.00,,,0.00,vanprod-2.5-rc3,2013-02-21 04:48:00,
2013-02-20 21:53:00,33.3,25.3,29.51,SSW,203,5.0,10.0,72,0.00,,,0.00,vanprod-2.5-rc3,2013-02-21 04:53:00,
2013-02-20 21:58:00,33.3,25.3,29.51,SSW,207,4.0,4.0,72,0.00,,,0.00,vanprod-2.5-rc3,2013-02-21 04:58:00,
2013-02-20 22:00:00,33.2,25.5,29.50,SSW,212,5.0,7.0,73,0.00,,,0.00,vanprod-2.5-rc3,2013-02-21 05:00:00,
2013-02-20 22:05:00,33.2,25.2,29.50,South,181,2.0,3.0,72,0.00,,,0.00,vanprod-2.5-rc3,2013-02-21 05:05:00,
2013-02-20 22:10:00,33.2,25.2,29.50,South,177,5.0,5.0,72,0.00,,,0.00,vanprod-2.5-rc3,2013-02-21 05:10:00,
2013-02-20 22:15:00,33.2,25.2,29.50,South,187,2.0,0.0,72,0.00,,,0.00,vanprod-2.5-rc3,2013-02-21 05:15:00,
2013-02-20 22:20:00,33.2,25.5,29.50,South,185,3.0,4.0,73,0.00,,,0.00,vanprod-2.5-rc3,2013-02-21 05:20:00,
2013-02-20 22:25:00,33.2,25.5,29.50,South,181,2.0,5.0,73,0.00,,,0.00,vanprod-2.5-rc3,2013-02-21 05:25:00,
2013-02-20 22:30:00,33.1,25.4,29.50,South,179,2.0,6.0,73,0.00,,,0.00,vanprod-2.5-rc3,2013-02-21 05:30:00,
2013-02-20 22:35:00,33.0,25.3,29.50,South,186,2.0,4.0,73,0.00,,,0.00,vanprod-2.5-rc3,2013-02-21 05:35:00,
2013-02-20 22:40:00,33.0,25.3,29.50,South,185,5.0,6.0,73,0.00,,,0.00,vanprod-2.5-rc3,2013-02-21 05:40:00,
2013-02-20 22:45:00,33.0,25.3,29.50,SSW,201,5.0,7.0,73,0.00,,,0.00,vanprod-2.5-rc3,2013-02-21 05:45:00,
2013-02-20 22:50:00,33.0,25.3,29.50,SW,219,5.0,9.0,73,0.00,,,0.00,vanprod-2.5-rc3,2013-02-21 05:50:00,
2013-02-20 22:55:00,33.0,25.3,29.50,SSW,201,6.0,12.0,73,0.00,,,0.00,vanprod-2.5-rc3,2013-02-21 05:55:00,
2013-02-20 23:00:00,32.9,25.2,29.51,SSW,206,3.0,4.0,73,0.00,,,0.00,vanprod-2.5-rc3,2013-02-21 06:00:00,
2013-02-20 23:05:00,32.8,25.1,29.50,SSW,213,4.0,4.0,73,0.00,,,0.00,vanprod-2.5-rc3,2013-02-21 06:05:00,
2013-02-20 23:10:00,32.8,24.8,29.51,SSW,202,3.0,4.0,72,0.00,,,0.00,vanprod-2.5-rc3,2013-02-21 06:10:00,
2013-02-20 23:15:00,32.8,24.8,29.51,SSW,197,2.0,4.0,72,0.00,,,0.00,vanprod-2.5-rc3,2013-02-21 06:15:00,
2013-02-20 23:20:00,32.8,24.8,29.51,SW,235,5.0,5.0,72,0.00,,,0.00,vanprod-2.5-rc3,2013-02-21 06:20:00,
2013-02-20 23:25:00,32.8,24.8,29.51,WSW,237,7.0,7.0,72,0.00,,,0.00,vanprod-2.5-rc3,2013-02-21 06:25:00,
2013-02-20 23:30:00,33.0,25.0,29.51,WSW,247,7.0,11.0,72,0.00,,,0.00,vanprod-2.5-rc3,2013-02-21 06:30:00,
2013-02-20 23:35:00,33.2,24.8,29.51,West,262,4.0,12.0,71,0.00,,,0.00,vanprod-2.5-rc3,2013-02-21 06:35:00,
2013-02-20 23:40:00,33.1,24.7,29.51,WSW,252,10.0,12.0,71,0.00,,,0.00,vanprod-2.5-rc3,2013-02-21 06:40:00,
2013-02-20 23:45:00,33.3,24.9,29.51,WSW,256,10.0,10.0,71,0.00,,,0.00,vanprod-2.5-rc3,2013-02-21 06:45:00,
2013-02-20 23:50:00,33.3,24.9,29.51,WSW,255,10.0,10.0,71,0.00,,,0.00,vanprod-2.5-rc3,2013-02-21 06:50:00,
2013-02-20 23:55:00,33.2,24.8,29.51,WSW,253,11.0,11.0,71,0.00,,,0.00,vanprod-2.5-rc3,2013-02-21 06:55:00,